Time;durP1;ratioP1;P1;durP2;ratioP2;P2;SDS_P1;SDS_P2;PMS_P1;PMS_P2;Temp;Humidity;BMP_temperature;BMP_pressure;BME280_temperature;BME280_humidity;BME280_pressure;Samples;Min_cycle;Max_cycle;Signal;HPM_P1;HPM_P2
2022/05/11 00:01:56;;;;;;;10.65;1.70;;;;;;;;;;5031707;28;20038;-68
2022/05/11 00:04:22;;;;;;;11.00;1.88;;;;;;;;;;5034349;28;20033;-68
2022/05/11 00:06:49;;;;;;;14.50;1.85;;;;;;;;;;5022564;28;20531;-68
2022/05/11 00:09:28;;;;;;;13.13;2.03;;;;;;;;;;5021917;28;20030;-69
2022/05/11 00:11:53;;;;;;;12.90;2.17;;;;;;;;;;5027361;28;20034;-68
2022/05/11 00:14:19;;;;;;;18.90;2.28;;;;;;;;;;5030447;28;20478;-68
2022/05/11 00:16:59;;;;;;;15.25;2.20;;;;;;;;;;5029064;28;20531;-68
2022/05/11 00:19:25;;;;;;;6.63;1.77;;;;;;;;;;5038117;28;20037;-68
2022/05/11 00:21:50;;;;;;;11.25;2.08;;;;;;;;;;5038787;28;20125;-68
2022/05/11 00:24:29;;;;;;;14.10;2.00;;;;;;;;;;5037254;28;20523;-68
2022/05/11 00:26:54;;;;;;;19.40;2.45;;;;;;;;;;5033916;28;20068;-68
2022/05/11 00:29:20;;;;;;;7.38;1.55;;;;;;;;;;5033410;28;20057;-68
2022/05/11 00:31:59;;;;;;;13.10;1.83;;;;;;;;;;5033118;28;20033;-68
2022/05/11 00:34:24;;;;;;;10.88;2.55;;;;;;;;;;5033805;28;20083;-68
2022/05/11 00:36:49;;;;;;;15.80;2.20;;;;;;;;;;5032478;28;20037;-68
2022/05/11 00:39:28;;;;;;;10.10;1.90;;;;;;;;;;5033592;28;20496;-68
2022/05/11 00:41:53;;;;;;;12.48;1.85;;;;;;;;;;5033600;28;20091;-68
2022/05/11 00:44:20;;;;;;;15.68;2.22;;;;;;;;;;5034142;28;20033;-68
2022/05/11 00:47:05;;;;;;;12.05;2.03;;;;;;;;;;5037039;28;20033;-68
2022/05/11 00:49:43;;;;;;;8.15;1.80;;;;;;;;;;5022906;28;20029;-68
2022/05/11 00:52:24;;;;;;;15.18;1.85;;;;;;;;;;5060688;28;20485;-68
2022/05/11 00:55:01;;;;;;;15.85;2.53;;;;;;;;;;5028433;28;20068;-68
2022/05/11 00:57:51;;;;;;;13.18;1.80;;;;;;;;;;5040845;28;20112;-68
2022/05/11 01:00:18;;;;;;;13.38;2.20;;;;;;;;;;5035649;28;20044;-68
2022/05/11 01:03:07;;;;;;;19.75;2.67;;;;;;;;;;5062721;28;20021;-68
2022/05/11 01:05:32;;;;;;;11.35;1.92;;;;;;;;;;5065258;28;21046;-68
2022/05/11 01:08:04;;;;;;;11.32;2.00;;;;;;;;;;5046192;28;20064;-68
2022/05/11 01:10:37;;;;;;;10.70;2.15;;;;;;;;;;5039473;28;20469;-68
2022/05/11 01:13:13;;;;;;;8.68;2.00;;;;;;;;;;5059533;28;20041;-68
2022/05/11 01:15:46;;;;;;;16.08;1.95;;;;;;;;;;5029813;28;20052;-68
2022/05/11 01:18:11;;;;;;;11.30;2.00;;;;;;;;;;5035445;28;20123;-68
2022/05/11 01:20:44;;;;;;;18.70;2.20;;;;;;;;;;5036568;28;20638;-68
2022/05/11 01:23:33;;;;;;;11.52;1.90;;;;;;;;;;5033325;28;20128;-68
2022/05/11 01:26:05;;;;;;;11.30;1.80;;;;;;;;;;5057044;28;20037;-68
2022/05/11 01:28:31;;;;;;;9.68;1.83;;;;;;;;;;5031938;28;20045;-68
2022/05/11 01:31:10;;;;;;;8.85;1.83;;;;;;;;;;5041042;28;20025;-68
2022/05/11 01:33:45;;;;;;;6.80;1.50;;;;;;;;;;5038781;28;20503;-68
2022/05/11 01:36:17;;;;;;;10.73;2.20;;;;;;;;;;5032699;28;20030;-68
2022/05/11 01:39:00;;;;;;;13.43;1.77;;;;;;;;;;5035292;28;20044;-68
2022/05/11 01:41:47;;;;;;;14.80;2.28;;;;;;;;;;5020972;28;20497;-68
2022/05/11 01:44:20;;;;;;;16.05;2.03;;;;;;;;;;5033351;28;20099;-68
2022/05/11 01:46:54;;;;;;;13.52;2.05;;;;;;;;;;5044813;28;20037;-68
2022/05/11 01:49:27;;;;;;;;;;;;;;;;;;5036523;28;20044;-68
2022/05/11 01:51:53;;;;;;;11.30;1.75;;;;;;;;;;5035577;28;20055;-68
2022/05/11 01:54:25;;;;;;;12.25;2.25;;;;;;;;;;5034004;28;20132;-68
2022/05/11 01:56:57;;;;;;;17.05;2.35;;;;;;;;;;5032674;28;20045;-68
2022/05/11 01:59:23;;;;;;;10.30;1.73;;;;;;;;;;5035834;28;20034;-68
2022/05/11 02:01:55;;;;;;;14.73;2.20;;;;;;;;;;5035594;28;20036;-68
2022/05/11 02:10:09;;;;;;;12.48;1.80;;;;;;;;;;5043081;28;20053;-68
2022/05/11 02:12:41;;;;;;;12.10;2.00;;;;;;;;;;5035572;28;20102;-68
2022/05/11 02:15:08;;;;;;;11.00;1.42;;;;;;;;;;5025623;28;20056;-69
2022/05/11 02:17:48;;;;;;;9.02;1.58;;;;;;;;;;5035630;28;20361;-68
2022/05/11 02:20:16;;;;;;;9.60;1.50;;;;;;;;;;5025741;28;20076;-68
2022/05/11 02:22:55;;;;;;;12.68;1.52;;;;;;;;;;5034364;28;20053;-68
2022/05/11 02:25:21;;;;;;;16.50;2.05;;;;;;;;;;5034830;28;20038;-68
2022/05/11 02:27:48;;;;;;;6.47;1.80;;;;;;;;;;5039551;28;20026;-68
2022/05/11 02:30:36;;;;;;;12.27;2.35;;;;;;;;;;5044081;28;20078;-68
2022/05/11 02:33:01;;;;;;;12.23;2.13;;;;;;;;;;5034003;28;20099;-68
2022/05/11 02:35:33;;;;;;;14.18;2.45;;;;;;;;;;5036229;28;20033;-68
2022/05/11 02:38:09;;;;;;;9.77;2.15;;;;;;;;;;5032965;28;20104;-68
2022/05/11 02:40:42;;;;;;;15.20;2.75;;;;;;;;;;5064804;28;20030;-68
2022/05/11 02:43:09;;;;;;;14.65;2.33;;;;;;;;;;5034585;28;20037;-68
2022/05/11 02:45:42;;;;;;;10.10;1.70;;;;;;;;;;5037861;28;20407;-68
2022/05/11 02:48:17;;;;;;;10.50;1.67;;;;;;;;;;5033656;28;20041;-68
2022/05/11 02:50:52;;;;;;;15.02;2.35;;;;;;;;;;5064787;28;20029;-68
2022/05/11 02:53:26;;;;;;;12.63;2.00;;;;;;;;;;5026996;28;20128;-68
2022/05/11 02:56:00;;;;;;;15.02;1.80;;;;;;;;;;5039766;28;20057;-69
2022/05/11 02:58:32;;;;;;;15.95;2.25;;;;;;;;;;5027937;28;20099;-68
2022/05/11 03:01:07;;;;;;;6.15;1.73;;;;;;;;;;5032229;28;20033;-68
2022/05/11 03:03:39;;;;;;;13.85;2.42;;;;;;;;;;5034177;28;20029;-68
2022/05/11 03:06:05;;;;;;;14.45;2.72;;;;;;;;;;5036319;28;20037;-68
2022/05/11 03:08:38;;;;;;;13.88;2.28;;;;;;;;;;5040893;28;20043;-68
2022/05/11 03:11:10;;;;;;;10.85;1.92;;;;;;;;;;5037133;28;20469;-68
2022/05/11 03:13:35;;;;;;;15.82;2.25;;;;;;;;;;5033512;28;20049;-68
2022/05/11 03:16:08;;;;;;;7.28;1.90;;;;;;;;;;5037303;28;20058;-68
2022/05/11 03:18:40;;;;;;;13.95;2.20;;;;;;;;;;5037648;28;20041;-68
2022/05/11 03:21:05;;;;;;;14.23;2.90;;;;;;;;;;5024144;28;20060;-68
2022/05/11 03:23:37;;;;;;;11.85;2.10;;;;;;;;;;5036291;28;20025;-68
2022/05/11 03:26:11;;;;;;;11.75;2.95;;;;;;;;;;5025900;28;20446;-68
2022/05/11 03:28:36;;;;;;;16.23;2.15;;;;;;;;;;5030970;28;20045;-68
2022/05/11 03:31:09;;;;;;;10.05;2.47;;;;;;;;;;5041213;28;20111;-68
2022/05/11 03:36:32;;;;;;;11.68;2.25;;;;;;;;;;5030583;28;20092;-68
2022/05/11 03:39:04;;;;;;;14.45;3.15;;;;;;;;;;5041533;28;20048;-68
2022/05/11 03:41:29;;;;;;;9.65;2.08;;;;;;;;;;5031620;28;20053;-67
2022/05/11 03:44:01;;;;;;;11.07;2.72;;;;;;;;;;5033229;28;20064;-68
2022/05/11 03:46:33;;;;;;;11.85;2.45;;;;;;;;;;5026328;28;20038;-68
2022/05/11 03:48:58;;;;;;;10.40;1.83;;;;;;;;;;5033824;28;20104;-68
2022/05/11 03:51:31;;;;;;;6.82;1.98;;;;;;;;;;5040865;28;20113;-68
2022/05/11 03:54:03;;;;;;;13.50;2.38;;;;;;;;;;5034576;28;20037;-68
2022/05/11 03:56:29;;;;;;;10.68;2.00;;;;;;;;;;5036698;28;20041;-68
2022/05/11 03:59:01;;;;;;;8.90;1.85;;;;;;;;;;5035697;28;20086;-68
2022/05/11 04:01:33;;;;;;;10.55;2.22;;;;;;;;;;5034117;28;20037;-68
2022/05/11 04:03:58;;;;;;;12.00;1.85;;;;;;;;;;5033912;28;20040;-68
2022/05/11 04:06:31;;;;;;;10.13;2.13;;;;;;;;;;5033992;28;20424;-68
2022/05/11 04:09:11;;;;;;;13.55;1.90;;;;;;;;;;5042803;28;20045;-68
2022/05/11 04:11:43;;;;;;;12.60;2.17;;;;;;;;;;5034872;28;20029;-68
2022/05/11 04:14:08;;;;;;;6.13;1.42;;;;;;;;;;5032648;28;20084;-68
2022/05/11 04:16:40;;;;;;;11.68;1.98;;;;;;;;;;5034008;28;20527;-68
2022/05/11 04:19:12;;;;;;;6.95;1.50;;;;;;;;;;5036214;28;20397;-68
2022/05/11 04:21:37;;;;;;;7.38;1.30;;;;;;;;;;5028258;28;20064;-68
2022/05/11 04:24:09;;;;;;;14.15;2.08;;;;;;;;;;5038238;28;20405;-68
2022/05/11 04:26:41;;;;;;;10.40;1.45;;;;;;;;;;5034317;28;20108;-68
2022/05/11 04:29:06;;;;;;;8.65;1.38;;;;;;;;;;5035439;28;20064;-68
2022/05/11 04:31:38;;;;;;;14.07;1.85;;;;;;;;;;5051478;28;20028;-68
2022/05/11 04:34:13;;;;;;;11.93;1.85;;;;;;;;;;5039167;28;20037;-68
2022/05/11 04:36:45;;;;;;;10.57;1.58;;;;;;;;;;5037417;28;20042;-68
2022/05/11 04:39:17;;;;;;;12.90;1.55;;;;;;;;;;5042903;28;20029;-68
2022/05/11 04:41:43;;;;;;;10.35;2.30;;;;;;;;;;5046708;28;20033;-68
2022/05/11 04:44:15;;;;;;;9.82;1.33;;;;;;;;;;5036117;28;20032;-68
2022/05/11 04:46:48;;;;;;;11.80;1.80;;;;;;;;;;5036935;28;20370;-68
2022/05/11 04:49:23;;;;;;;8.63;1.80;;;;;;;;;;5037135;28;20052;-68
2022/05/11 04:52:11;;;;;;;11.48;2.00;;;;;;;;;;5035611;28;20041;-68
2022/05/11 04:54:48;;;;;;;8.55;1.63;;;;;;;;;;5038286;28;20124;-68
2022/05/11 04:57:21;;;;;;;10.30;2.00;;;;;;;;;;5037116;28;20393;-68
2022/05/11 04:59:53;;;;;;;15.88;3.05;;;;;;;;;;5039852;28;20379;-68
2022/05/11 05:02:28;;;;;;;15.82;2.25;;;;;;;;;;5034355;28;20041;-68
2022/05/11 05:05:01;;;;;;;9.38;1.85;;;;;;;;;;5034515;28;20347;-68
2022/05/11 05:07:26;;;;;;;8.20;2.20;;;;;;;;;;5033548;28;20112;-68
2022/05/11 05:09:59;;;;;;;11.80;2.28;;;;;;;;;;5042364;28;20105;-68
2022/05/11 05:12:31;;;;;;;11.00;1.98;;;;;;;;;;5026014;28;20496;-68
2022/05/11 05:14:56;;;;;;;10.65;2.13;;;;;;;;;;5035687;28;20044;-68
2022/05/11 05:17:29;;;;;;;8.52;2.00;;;;;;;;;;5061131;28;20033;-68
2022/05/11 05:20:01;;;;;;;11.40;1.90;;;;;;;;;;5036831;28;20042;-68
2022/05/11 05:22:27;;;;;;;13.63;2.55;;;;;;;;;;5035431;28;20436;-68
2022/05/11 05:24:59;;;;;;;8.60;1.60;;;;;;;;;;5044031;28;20036;-68
2022/05/11 05:27:31;;;;;;;12.93;2.15;;;;;;;;;;5033935;28;20436;-68
2022/05/11 05:32:54;;;;;;;12.10;2.03;;;;;;;;;;5035848;28;20043;-68
2022/05/11 05:35:20;;;;;;;10.90;2.30;;;;;;;;;;5036250;28;20419;-68
2022/05/11 05:37:46;;;;;;;10.98;1.80;;;;;;;;;;5055558;28;20104;-68
2022/05/11 05:40:25;;;;;;;9.98;2.08;;;;;;;;;;5039482;28;20461;-68
2022/05/11 05:42:50;;;;;;;12.15;1.95;;;;;;;;;;5039340;28;20052;-68
2022/05/11 05:45:15;;;;;;;16.05;2.13;;;;;;;;;;5035136;28;20030;-68
2022/05/11 05:47:54;;;;;;;12.65;2.00;;;;;;;;;;5031062;28;20034;-68
2022/05/11 05:50:19;;;;;;;15.93;2.55;;;;;;;;;;5045947;28;20048;-68
2022/05/11 05:52:49;;;;;;;12.57;1.90;;;;;;;;;;5034578;28;20022;-68
2022/05/11 05:55:28;;;;;;;16.05;2.20;;;;;;;;;;5032392;28;20446;-68
2022/05/11 05:57:53;;;;;;;18.05;2.35;;;;;;;;;;5034827;28;20037;-68
2022/05/11 06:00:19;;;;;;;11.60;2.65;;;;;;;;;;5052474;28;20021;-68
2022/05/11 06:02:58;;;;;;;6.20;1.63;;;;;;;;;;5035978;28;20030;-68
2022/05/11 06:05:24;;;;;;;14.15;2.42;;;;;;;;;;5040791;28;20044;-68
2022/05/11 06:07:49;;;;;;;7.43;2.05;;;;;;;;;;5046673;28;20032;-68
2022/05/11 06:10:30;;;;;;;14.20;2.78;;;;;;;;;;5036115;28;20037;-68
2022/05/11 06:12:55;;;;;;;14.70;2.58;;;;;;;;;;5034323;28;20037;-68
2022/05/11 06:15:21;;;;;;;13.23;2.75;;;;;;;;;;5034519;28;20022;-68
2022/05/11 06:18:00;;;;;;;10.82;2.78;;;;;;;;;;5035599;28;20044;-68
2022/05/11 06:20:25;;;;;;;14.70;2.50;;;;;;;;;;5033377;28;20112;-68
2022/05/11 06:22:53;;;;;;;13.93;2.90;;;;;;;;;;5032238;28;20184;-68
2022/05/11 06:25:32;;;;;;;17.85;2.58;;;;;;;;;;5038949;28;20465;-68
2022/05/11 06:28:00;;;;;;;10.60;2.63;;;;;;;;;;5034218;28;20033;-68
2022/05/11 06:30:39;;;;;;;10.38;2.40;;;;;;;;;;5039944;28;20021;-68
2022/05/11 06:33:04;;;;;;;10.70;2.63;;;;;;;;;;5038273;28;20116;-67
2022/05/11 06:35:30;;;;;;;12.90;2.80;;;;;;;;;;5034316;28;20113;-68
2022/05/11 06:38:10;;;;;;;11.23;2.65;;;;;;;;;;5034013;28;20044;-68
2022/05/11 06:40:36;;;;;;;12.05;2.33;;;;;;;;;;5034297;28;20037;-68
2022/05/11 06:43:01;;;;;;;11.43;2.42;;;;;;;;;;5033506;28;20036;-68
2022/05/11 06:45:40;;;;;;;11.95;2.53;;;;;;;;;;5034121;28;20025;-68
2022/05/11 06:48:06;;;;;;;10.45;2.58;;;;;;;;;;5034473;28;20033;-68
2022/05/11 06:50:31;;;;;;;8.75;1.95;;;;;;;;;;5033308;28;20021;-68
2022/05/11 06:53:15;;;;;;;9.95;2.33;;;;;;;;;;5033887;28;20435;-68
2022/05/11 07:01:31;;;;;;;8.00;2.45;;;;;;;;;;5033162;28;20033;-68
2022/05/11 07:04:10;;;;;;;11.05;2.20;;;;;;;;;;5031422;28;20021;-68
2022/05/11 07:06:35;;;;;;;13.40;2.08;;;;;;;;;;5031434;28;20477;-68
2022/05/11 07:09:01;;;;;;;11.55;1.83;;;;;;;;;;5026375;28;20032;-68
2022/05/11 07:14:25;;;;;;;7.97;1.52;;;;;;;;;;5032255;28;20091;-68
2022/05/11 07:17:04;;;;;;;13.05;1.70;;;;;;;;;;5033458;28;20030;-68
2022/05/11 07:19:29;;;;;;;7.25;1.67;;;;;;;;;;5033460;28;20034;-68
2022/05/11 07:21:55;;;;;;;9.18;1.83;;;;;;;;;;5031835;28;20690;-68
2022/05/11 07:24:34;;;;;;;6.93;2.05;;;;;;;;;;5033443;28;20028;-68
2022/05/11 07:27:00;;;;;;;10.50;2.80;;;;;;;;;;5032296;28;20042;-68
2022/05/11 07:29:25;;;;;;;13.43;2.42;;;;;;;;;;5030751;28;20030;-68
2022/05/11 07:32:04;;;;;;;9.10;2.42;;;;;;;;;;5033772;28;20025;-68
2022/05/11 07:34:29;;;;;;;6.47;2.42;;;;;;;;;;5037013;28;20042;-68
2022/05/11 07:36:55;;;;;;;10.10;2.30;;;;;;;;;;5034050;28;20461;-67
2022/05/11 07:39:34;;;;;;;11.43;2.35;;;;;;;;;;5037982;28;20109;-67
2022/05/11 07:42:02;;;;;;;9.65;2.80;;;;;;;;;;5021539;28;20045;-68
2022/05/11 07:44:41;;;;;;;13.63;3.03;;;;;;;;;;5028507;28;20030;-68
2022/05/11 07:47:07;;;;;;;14.35;3.05;;;;;;;;;;5029579;28;20076;-68
2022/05/11 07:49:32;;;;;;;13.43;2.92;;;;;;;;;;5029628;28;20497;-68
2022/05/11 07:52:12;;;;;;;17.13;2.80;;;;;;;;;;5029809;28;20033;-68
2022/05/11 07:54:40;;;;;;;13.18;3.10;;;;;;;;;;5027719;28;20041;-68
2022/05/11 08:00:08;;;;;;;19.17;2.78;;;;;;;;;;5033314;28;20049;-68
2022/05/11 08:03:34;;;;;;;17.95;3.40;;;;;;;;;;5033730;28;20032;-68
2022/05/11 08:05:59;;;;;;;14.95;2.72;;;;;;;;;;5033576;28;20042;-68
2022/05/11 08:08:31;;;;;;;19.25;3.10;;;;;;;;;;5034272;28;20355;-67
2022/05/11 08:11:04;;;;;;;11.05;2.63;;;;;;;;;;5033916;28;20471;-68
2022/05/11 08:13:30;;;;;;;18.90;3.22;;;;;;;;;;5034075;28;20065;-68
2022/05/11 08:16:02;;;;;;;20.02;3.08;;;;;;;;;;5033251;28;20417;-68
2022/05/11 08:18:35;;;;;;;25.70;4.10;;;;;;;;;;5032136;28;20120;-68
2022/05/11 08:21:01;;;;;;;15.18;3.03;;;;;;;;;;5035325;28;20447;-68
2022/05/11 08:23:33;;;;;;;13.20;2.67;;;;;;;;;;5034108;28;21011;-68
2022/05/11 08:26:05;;;;;;;11.38;3.33;;;;;;;;;;5028013;28;20070;-68
2022/05/11 08:28:30;;;;;;;12.88;3.17;;;;;;;;;;5033106;28;20462;-68
2022/05/11 08:33:53;;;;;;;18.83;3.17;;;;;;;;;;5028113;28;20125;-68
2022/05/11 08:36:27;;;;;;;12.80;3.53;;;;;;;;;;5031606;28;20037;-68
2022/05/11 08:39:02;;;;;;;15.60;3.00;;;;;;;;;;5030377;28;20044;-68
2022/05/11 08:41:37;;;;;;;13.07;2.85;;;;;;;;;;5030735;28;20033;-68
2022/05/11 08:44:14;;;;;;;19.88;3.22;;;;;;;;;;5025230;28;20049;-68
2022/05/11 08:47:06;;;;;;;15.25;2.95;;;;;;;;;;5027793;28;20466;-68
2022/05/11 08:49:59;;;;;;;19.27;2.90;;;;;;;;;;5032445;28;20048;-68
2022/05/11 08:52:52;;;;;;;12.77;3.47;;;;;;;;;;5032028;28;20053;-68
2022/05/11 08:55:31;;;;;;;15.05;3.10;;;;;;;;;;5058596;28;20045;-68
2022/05/11 08:58:31;;;;;;;15.70;3.08;;;;;;;;;;5032468;28;20041;-68
2022/05/11 09:01:07;;;;;;;16.17;3.13;;;;;;;;;;5039125;28;20064;-68
2022/05/11 09:03:41;;;;;;;10.95;3.03;;;;;;;;;;5030401;28;20477;-67
2022/05/11 09:06:20;;;;;;;12.75;3.80;;;;;;;;;;5031801;28;20045;-68
2022/05/11 09:08:54;;;;;;;18.20;3.50;;;;;;;;;;5032077;28;20052;-68
2022/05/11 09:11:49;;;;;;;11.98;2.55;;;;;;;;;;5032630;28;20120;-68
2022/05/11 09:14:39;;;;;;;23.35;3.85;;;;;;;;;;5032770;28;20432;-68
2022/05/11 09:17:13;;;;;;;17.23;4.50;;;;;;;;;;5022207;28;20037;-68
2022/05/11 09:19:46;;;;;;;18.05;3.50;;;;;;;;;;5030380;28;20532;-68
2022/05/11 09:22:24;;;;;;;14.05;4.13;;;;;;;;;;5028972;28;20057;-68
2022/05/11 09:25:00;;;;;;;15.77;3.58;;;;;;;;;;5031724;28;20041;-68
2022/05/11 09:27:38;;;;;;;16.70;3.88;;;;;;;;;;5028156;28;20389;-67
2022/05/11 09:30:28;;;;;;;12.40;3.35;;;;;;;;;;5031068;28;20026;-68
2022/05/11 09:33:27;;;;;;;16.63;3.53;;;;;;;;;;5031114;28;20069;-68
2022/05/11 09:36:03;;;;;;;12.98;2.97;;;;;;;;;;5045856;28;20045;-68
2022/05/11 09:38:48;;;;;;;8.00;2.60;;;;;;;;;;5031646;28;20084;-68
2022/05/11 09:41:19;;;;;;;13.68;2.90;;;;;;;;;;5023112;28;20044;-68
2022/05/11 09:43:54;;;;;;;11.82;2.97;;;;;;;;;;5028005;28;20052;-68
2022/05/11 09:46:26;;;;;;;12.05;2.42;;;;;;;;;;5023698;28;20049;-68
2022/05/11 09:49:37;;;;;;;8.60;2.10;;;;;;;;;;5030329;28;20476;-68
2022/05/11 09:52:09;;;;;;;7.70;2.65;;;;;;;;;;5038128;28;20041;-68
2022/05/11 09:54:57;;;;;;;18.95;3.03;;;;;;;;;;5055974;28;20075;-68
2022/05/11 09:57:29;;;;;;;11.05;2.40;;;;;;;;;;5034101;28;20049;-68
2022/05/11 10:00:28;;;;;;;8.80;2.60;;;;;;;;;;5031287;28;20030;-68
2022/05/11 10:03:03;;;;;;;7.57;2.40;;;;;;;;;;5025182;28;20076;-68
2022/05/11 10:05:56;;;;;;;11.30;2.83;;;;;;;;;;5027154;28;20045;-68
2022/05/11 10:08:48;;;;;;;9.30;2.60;;;;;;;;;;5027367;28;20034;-68
2022/05/11 10:11:32;;;;;;;12.82;3.33;;;;;;;;;;5028246;28;20041;-68
2022/05/11 10:23:08;;;;;;;9.45;2.20;;;;;;;;;;5042365;28;20072;-68
2022/05/11 10:25:42;;;;;;;9.00;3.10;;;;;;;;;;5045504;28;20618;-68
2022/05/11 10:28:29;;;;;;;11.45;2.63;;;;;;;;;;5019805;28;20049;-68
2022/05/11 10:31:16;;;;;;;13.52;2.58;;;;;;;;;;5022137;28;20044;-68
2022/05/11 10:34:21;;;;;;;13.93;2.92;;;;;;;;;;5026909;28;20041;-68
2022/05/11 10:37:19;;;;;;;9.70;2.45;;;;;;;;;;5013877;28;20045;-68
2022/05/11 10:40:17;;;;;;;9.98;2.22;;;;;;;;;;5053367;28;20071;-68
2022/05/11 10:43:04;;;;;;;9.10;2.38;;;;;;;;;;5051257;28;20021;-68
2022/05/11 10:45:50;;;;;;;4.85;1.83;;;;;;;;;;5056658;28;20392;-68
2022/05/11 10:48:36;;;;;;;4.50;1.30;;;;;;;;;;5051494;28;20476;-68
2022/05/11 10:51:14;;;;;;;5.97;1.40;;;;;;;;;;5030441;28;20033;-68
2022/05/11 10:54:11;;;;;;;4.38;1.38;;;;;;;;;;5054808;28;20437;-68
2022/05/11 10:56:52;;;;;;;5.75;1.50;;;;;;;;;;5040388;28;20040;-68
2022/05/11 10:59:33;;;;;;;4.30;1.10;;;;;;;;;;5020959;28;20049;-68
2022/05/11 11:02:43;;;;;;;6.65;1.30;;;;;;;;;;5016586;28;20045;-68
2022/05/11 11:05:21;;;;;;;7.68;1.40;;;;;;;;;;5028756;28;20045;-68
2022/05/11 11:08:08;;;;;;;5.13;1.05;;;;;;;;;;5028392;28;20042;-69
2022/05/11 11:11:05;;;;;;;7.15;1.10;;;;;;;;;;5029782;28;20116;-68
2022/05/11 11:14:01;;;;;;;4.70;1.45;;;;;;;;;;5027411;28;20029;-68
2022/05/11 11:16:35;;;;;;;3.28;1.20;;;;;;;;;;5027620;28;20126;-68
2022/05/11 11:19:11;;;;;;;2.47;1.00;;;;;;;;;;5062082;28;20041;-68
2022/05/11 11:21:43;;;;;;;2.97;1.10;;;;;;;;;;5043155;28;20038;-68
2022/05/11 11:24:22;;;;;;;4.75;1.10;;;;;;;;;;5029050;28;20079;-68
2022/05/11 11:26:56;;;;;;;2.35;0.85;;;;;;;;;;5029220;28;20116;-68
2022/05/11 11:29:39;;;;;;;2.92;1.10;;;;;;;;;;5026285;28;20046;-68
2022/05/11 11:32:21;;;;;;;5.50;1.17;;;;;;;;;;5025764;28;20044;-68
2022/05/11 11:35:17;;;;;;;3.15;1.60;;;;;;;;;;5029365;28;20048;-68
2022/05/11 11:38:00;;;;;;;3.10;0.82;;;;;;;;;;5017325;28;20037;-68
2022/05/11 11:40:35;;;;;;;2.92;1.00;;;;;;;;;;5024978;28;20453;-68
2022/05/11 11:43:46;;;;;;;5.85;1.00;;;;;;;;;;5019939;28;20045;-68
2022/05/11 11:46:40;;;;;;;4.65;1.20;;;;;;;;;;5039743;28;20041;-68
2022/05/11 11:49:18;;;;;;;3.35;1.00;;;;;;;;;;5028984;28;20030;-68
2022/05/11 11:52:00;;;;;;;3.13;1.00;;;;;;;;;;5025050;28;20115;-68
2022/05/11 11:54:38;;;;;;;3.45;1.00;;;;;;;;;;5028141;28;20065;-68
2022/05/11 11:57:16;;;;;;;3.08;1.20;;;;;;;;;;5029010;28;20031;-68
2022/05/11 11:59:49;;;;;;;3.08;1.13;;;;;;;;;;5036764;28;20083;-68
2022/05/11 12:02:43;;;;;;;1.85;0.80;;;;;;;;;;5046147;28;20041;-68
2022/05/11 12:05:37;;;;;;;2.95;0.93;;;;;;;;;;5047678;28;20171;-68
2022/05/11 12:17:08;;;;;;;2.22;1.00;;;;;;;;;;5033353;28;20045;-68
2022/05/11 12:19:44;;;;;;;1.25;0.70;;;;;;;;;;5029307;28;20026;-68
2022/05/11 12:22:22;;;;;;;1.20;0.70;;;;;;;;;;5018657;28;20061;-68
2022/05/11 12:25:11;;;;;;;2.13;0.80;;;;;;;;;;5020109;28;20037;-68
2022/05/11 12:27:43;;;;;;;1.20;0.70;;;;;;;;;;5047772;28;20037;-67
2022/05/11 12:30:34;;;;;;;3.00;0.77;;;;;;;;;;5028935;28;20041;-68
2022/05/11 12:33:07;;;;;;;2.65;0.70;;;;;;;;;;5028628;28;20060;-67
2022/05/11 12:35:46;;;;;;;0.70;0.52;;;;;;;;;;5028638;28;20030;-68
2022/05/11 12:38:27;;;;;;;2.95;0.60;;;;;;;;;;5029968;28;20033;-68
2022/05/11 12:41:00;;;;;;;0.95;0.60;;;;;;;;;;5031767;28;20571;-68
2022/05/11 12:43:34;;;;;;;1.48;0.50;;;;;;;;;;5027835;28;20108;-68
2022/05/11 12:46:15;;;;;;;1.23;0.57;;;;;;;;;;5028182;28;20044;-68
2022/05/11 12:48:56;;;;;;;1.42;0.57;;;;;;;;;;5026462;28;20157;-67
2022/05/11 12:51:40;;;;;;;0.60;0.50;;;;;;;;;;5056559;28;20034;-68
2022/05/11 12:54:24;;;;;;;0.63;0.47;;;;;;;;;;5024817;28;20056;-68
2022/05/11 12:57:12;;;;;;;0.60;0.50;;;;;;;;;;5031938;28;20049;-68
2022/05/11 12:59:53;;;;;;;0.40;0.40;;;;;;;;;;5031329;28;20641;-68
2022/05/11 13:02:33;;;;;;;0.88;0.50;;;;;;;;;;5032146;28;20039;-67
2022/05/11 13:05:07;;;;;;;1.95;0.40;;;;;;;;;;5032247;28;20045;-68
2022/05/11 13:07:50;;;;;;;0.55;0.40;;;;;;;;;;5031689;28;20037;-68
2022/05/11 13:10:29;;;;;;;0.93;0.50;;;;;;;;;;5025090;28;20041;-68
2022/05/11 13:13:02;;;;;;;0.77;0.50;;;;;;;;;;5031694;28;20417;-68
2022/05/11 13:15:37;;;;;;;0.40;0.40;;;;;;;;;;5032465;28;20060;-67
2022/05/11 13:18:11;;;;;;;0.50;0.50;;;;;;;;;;5064122;28;20102;-68
2022/05/11 13:20:44;;;;;;;1.20;0.40;;;;;;;;;;5022074;28;20537;-68
2022/05/11 13:23:40;;;;;;;2.17;0.50;;;;;;;;;;5026931;28;20059;-68
2022/05/11 13:26:43;;;;;;;1.25;0.50;;;;;;;;;;5062180;28;20068;-68
2022/05/11 13:29:23;;;;;;;0.50;0.40;;;;;;;;;;5031236;28;20120;-68
2022/05/11 13:32:08;;;;;;;2.08;0.50;;;;;;;;;;5022332;28;20049;-68
2022/05/11 13:34:43;;;;;;;1.65;0.50;;;;;;;;;;5028998;28;20484;-68
2022/05/11 13:37:25;;;;;;;2.00;0.82;;;;;;;;;;5032055;28;20041;-68
2022/05/11 13:39:57;;;;;;;2.22;0.57;;;;;;;;;;5028358;28;20033;-68
2022/05/11 13:42:30;;;;;;;0.40;0.32;;;;;;;;;;5061196;28;20575;-68
2022/05/11 13:45:08;;;;;;;1.13;0.45;;;;;;;;;;5029164;28;20037;-68
2022/05/11 13:50:35;;;;;;;2.80;0.60;;;;;;;;;;5018462;28;20047;-68
2022/05/11 13:53:22;;;;;;;4.15;0.98;;;;;;;;;;5021463;28;20126;-67
2022/05/11 13:56:03;;;;;;;1.10;0.60;;;;;;;;;;5027389;28;20036;-68
2022/05/11 13:58:43;;;;;;;2.83;0.85;;;;;;;;;;5030742;28;20045;-68
2022/05/11 14:01:21;;;;;;;8.35;0.70;;;;;;;;;;5030193;28;20099;-68
2022/05/11 14:03:59;;;;;;;4.43;0.93;;;;;;;;;;5018422;28;20041;-68
2022/05/11 14:06:34;;;;;;;4.63;1.08;;;;;;;;;;5031080;28;20037;-68
2022/05/11 14:09:07;;;;;;;2.63;0.70;;;;;;;;;;5030894;28;20120;-68
2022/05/11 14:11:33;;;;;;;2.80;0.85;;;;;;;;;;5029380;28;20496;-68
2022/05/11 14:14:05;;;;;;;2.78;0.80;;;;;;;;;;5031436;28;20046;-67
2022/05/11 14:16:37;;;;;;;1.70;0.70;;;;;;;;;;5030853;28;20061;-68
2022/05/11 14:19:03;;;;;;;1.92;0.73;;;;;;;;;;5062536;28;20037;-68
2022/05/11 14:21:35;;;;;;;4.32;0.90;;;;;;;;;;5030610;28;20044;-68
2022/05/11 14:24:07;;;;;;;2.03;0.80;;;;;;;;;;5029770;28;20063;-68
2022/05/11 14:26:33;;;;;;;2.40;0.80;;;;;;;;;;5030305;28;20033;-68
2022/05/11 14:29:05;;;;;;;2.65;0.90;;;;;;;;;;5030626;28;20087;-68
2022/05/11 14:31:40;;;;;;;5.55;1.10;;;;;;;;;;5029375;28;20044;-68
2022/05/11 14:34:13;;;;;;;3.78;0.98;;;;;;;;;;5046538;28;20063;-67
2022/05/11 14:36:46;;;;;;;1.73;0.80;;;;;;;;;;5061230;28;20073;-68
2022/05/11 14:39:26;;;;;;;6.35;1.15;;;;;;;;;;5030699;28;20130;-68
2022/05/11 14:41:59;;;;;;;4.63;1.13;;;;;;;;;;5029447;28;20033;-68
2022/05/11 14:44:24;;;;;;;5.95;1.10;;;;;;;;;;5030025;28;20389;-68
2022/05/11 14:46:56;;;;;;;2.92;1.02;;;;;;;;;;5029329;28;20036;-68
2022/05/11 14:49:28;;;;;;;3.28;0.95;;;;;;;;;;5029953;28;20045;-68
2022/05/11 14:51:54;;;;;;;4.50;0.80;;;;;;;;;;5025622;28;20037;-68
2022/05/11 14:54:26;;;;;;;1.08;0.60;;;;;;;;;;5030134;28;20036;-68
2022/05/11 15:02:40;;;;;;;4.20;0.90;;;;;;;;;;5028747;28;20156;-68
2022/05/11 15:05:17;;;;;;;3.08;0.73;;;;;;;;;;5032242;28;20424;-68
2022/05/11 15:07:48;;;;;;;3.00;0.90;;;;;;;;;;5030191;28;20037;-68
2022/05/11 15:10:23;;;;;;;3.08;1.10;;;;;;;;;;5029633;28;20061;-68
2022/05/11 15:15:46;;;;;;;4.20;1.00;;;;;;;;;;5028980;28;20512;-68
2022/05/11 15:18:19;;;;;;;6.82;1.17;;;;;;;;;;5029350;28;20452;-68
2022/05/11 15:20:46;;;;;;;3.33;0.90;;;;;;;;;;5030076;28;20048;-68
2022/05/11 15:23:18;;;;;;;4.50;0.90;;;;;;;;;;5027735;28;20045;-68
2022/05/11 15:25:50;;;;;;;3.67;1.00;;;;;;;;;;5029755;28;20041;-67
2022/05/11 15:28:17;;;;;;;6.03;1.08;;;;;;;;;;5028652;28;20041;-68
2022/05/11 15:30:51;;;;;;;5.82;0.95;;;;;;;;;;5029468;28;20030;-68
2022/05/11 15:33:24;;;;;;;3.75;0.98;;;;;;;;;;5025405;28;20025;-68
2022/05/11 15:35:59;;;;;;;5.85;1.05;;;;;;;;;;5029204;28;20037;-68
2022/05/11 15:38:30;;;;;;;4.65;1.15;;;;;;;;;;5029425;28;20045;-68
2022/05/11 15:40:56;;;;;;;5.47;1.23;;;;;;;;;;5022114;28;20037;-68
2022/05/11 15:43:28;;;;;;;3.88;0.98;;;;;;;;;;5060277;28;20041;-68
2022/05/11 15:46:02;;;;;;;3.97;0.98;;;;;;;;;;5029321;28;20116;-68
2022/05/11 15:48:28;;;;;;;4.43;0.90;;;;;;;;;;5018208;28;20033;-68
2022/05/11 15:51:00;;;;;;;3.42;0.80;;;;;;;;;;5024728;28;20040;-68
2022/05/11 15:53:36;;;;;;;4.75;1.13;;;;;;;;;;5041605;28;20132;-68
2022/05/11 15:56:08;;;;;;;3.97;0.90;;;;;;;;;;5057813;28;20381;-67
2022/05/11 15:58:41;;;;;;;1.70;0.70;;;;;;;;;;5028462;28;20040;-67
2022/05/11 16:01:17;;;;;;;3.55;0.60;;;;;;;;;;5029051;28;20064;-67
2022/05/11 16:03:49;;;;;;;7.18;1.05;;;;;;;;;;5025293;28;20072;-68
2022/05/11 16:06:15;;;;;;;3.75;0.90;;;;;;;;;;5029123;28;20036;-68
2022/05/11 16:08:49;;;;;;;3.30;0.80;;;;;;;;;;5029231;28;20022;-67
2022/05/11 16:11:25;;;;;;;;;;;;;;;;;;5029228;28;20482;-68
2022/05/11 16:13:58;;;;;;;2.35;0.65;;;;;;;;;;5028899;28;19921;-68
2022/05/11 16:16:31;;;;;;;3.25;0.80;;;;;;;;;;5033345;28;20132;-68
2022/05/11 16:21:54;;;;;;;2.20;0.80;;;;;;;;;;5031841;28;20043;-68